METAR Data
IDs: Format: Raw Decoded Include TAF

Data at: 2058 UTC 19 May 2019

KHBV 192055Z AUTO 00000KT 10SM SCT041 SCT048 SCT060 32/21 A2979 RMK AO2 T03220210
KHBV 192035Z AUTO 12004KT 10SM SCT039 SCT050 BKN060 32/21 A2980 RMK AO2 T03240209
KHBV 192015Z AUTO 00000KT 10SM SCT037 BKN060 32/21 A2981 RMK AO2 T03210207
KHBV 191955Z AUTO 12007KT 10SM SCT037 SCT047 BKN060 32/21 A2982 RMK AO2 T03160209
KHBV 191935Z AUTO 00000KT 10SM SCT037 SCT045 OVC050 31/21 A2983 RMK AO2 T03100210
KHBV 191915Z AUTO 14003KT 10SM SCT037 BKN050 31/21 A2984 RMK AO2 T03100212
KHBV 191855Z AUTO 17008KT 10SM SCT033 BKN039 31/22 A2982 RMK AO2 T03100215
KHBV 191835Z AUTO 15008G16KT 120V180 10SM SCT033 31/22 A2982 RMK AO2 T03090217
KHBV 191815Z AUTO 18011G15KT 7SM SCT029 SCT038 31/22 A2981 RMK AO2 T03090219
KHBV 191755Z AUTO 15010G16KT 7SM SCT024 SCT028 SCT036 30/22 A2982 RMK AO2 T03010221 10351 20157
KHBV 191735Z AUTO 00000KT 7SM SCT022 SCT027 BKN038 29/22 A2984 RMK AO2 T02930222
KHBV 191715Z AUTO 16007KT 7SM SCT022 SCT030 BKN036 29/22 A2984 RMK AO2 T02910222
KHBV 191655Z AUTO 00000KT 7SM SCT019 SCT026 SCT038 29/22 A2985 RMK AO2 T02900222
KHBV 191635Z AUTO 15004KT 7SM SCT017 BKN023 OVC038 28/23 A2986 RMK AO2 T02840228
KHBV 191615Z AUTO 14003KT 7SM BKN015 BKN023 OVC036 28/23 A2987 RMK AO2 T02780230
KHBV 191555Z AUTO 00000KT 5SM HZ BKN013 BKN023 OVC036 27/23 A2987 RMK AO2 T02730230
KHBV 191535Z AUTO 14003KT 5SM HZ SCT011 BKN014 OVC020 27/23 A2986 RMK AO2 T02710231
KHBV 191515Z AUTO 12003KT 5SM HZ BKN009 BKN015 OVC031 27/23 A2986 RMK AO2 LTG DSNT NW T02680232
KHBV 191455Z AUTO 12003KT 5SM HZ SCT009 SCT015 OVC031 27/23 A2984 RMK AO2 T02670233
KHBV 191435Z AUTO 11006KT 5SM HZ SCT007 BKN011 OVC031 26/24 A2984 RMK AO2 T02630235
KHBV 191415Z AUTO 11007KT 4SM BR OVC007 26/24 A2983 RMK AO2 T02560235
KHBV 191355Z AUTO 10007KT 3SM BR BKN005 OVC009 25/24 A2983 RMK AO2 T02520235
KHBV 191335Z AUTO 08005KT 2 1/2SM BR BKN003 OVC026 25/24 A2983 RMK AO2 T02470235
KHBV 191315Z AUTO 09005KT 1 3/4SM BR BKN001 OVC011 24/23 A2981 RMK AO2 T02420232
KHBV 191255Z AUTO 09005KT 1 1/2SM BR BKN001 OVC011 24/23 A2980 RMK AO2 T02400230
KHBV 191235Z AUTO 00000KT 1 1/2SM BR VV007 24/23 A2979 RMK AO2 T02380230
KHBV 191215Z AUTO 00000KT 1 3/4SM BR SCT023 24/23 A2978 RMK AO2 T02370230
KHBV 191155Z AUTO 00000KT 1 1/2SM BR BKN023 24/23 A2978 RMK AO2 T02360228 10351 20157
KHBV 191135Z AUTO 00000KT 3SM BR SCT009 BKN023 OVC090 24/23 A2978 RMK AO2 T02370228
KHBV 191115Z AUTO 00000KT 2 1/2SM BR 24/23 A2978 RMK AO2 SKY OBSCURED T02380227
KHBV 191055Z AUTO 00000KT 3SM BR 24/23 A2977 RMK AO2 SKY OBSCURED T02410230
KHBV 191035Z AUTO 00000KT 3SM BR SCT012 OVC021 24/23 A2976 RMK AO2 T02430230
KHBV 191015Z AUTO 15005KT 3SM BR SCT012 OVC021 24/23 A2976 RMK AO2 T02430231
KHBV 190955Z AUTO 14005KT 3SM BR OVC021 24/23 A2976 RMK AO2 T02430230
KHBV 190935Z AUTO 15005KT 4SM BR SCT019 25/23 A2975 RMK AO2 T02450230
KHBV 190915Z AUTO 14005KT 4SM BR BKN019 25/23 A2975 RMK AO2 T02500230
KHBV 190855Z AUTO 12004KT 5SM BR SCT014 OVC019 25/23 A2975 RMK AO2 T02510228
KHBV 190835Z AUTO 11004KT 5SM HZ OVC017 25/23 A2975 RMK AO2 T02540227
KHBV 190815Z AUTO 12004KT 5SM HZ OVC015 26/23 A2975 RMK AO2 T02550227
KHBV 190755Z AUTO 12005KT 5SM HZ OVC015 26/23 A2975 RMK AO2 T02550228
KHBV 190735Z AUTO 13005KT 5SM HZ OVC013 26/23 A2975 RMK AO2 T02550229
KHBV 190715Z AUTO 14005KT 5SM HZ OVC013 25/23 A2975 RMK AO2 T02530230
KHBV 190655Z AUTO 16006KT 5SM HZ OVC011 25/23 A2974 RMK AO2 T02540230
KHBV 190635Z AUTO 16007KT 5SM HZ OVC011 26/23 A2974 RMK AO2 T02550231
KHBV 190615Z AUTO 16012KT 5SM BR OVC011 26/23 A2974 RMK AO2 T02550234
KHBV 190555Z AUTO 16008KT 5SM BR OVC011 25/24 A2975 RMK AO2 T02530237 10351 20157 403510157
KHBV 190535Z AUTO 15007KT 5SM BR SCT007 OVC013 25/24 A2975 RMK AO2 T02530240
KHBV 190515Z AUTO 16006KT 5SM BR BKN007 OVC013 26/24 A2975 RMK AO2 T02550240
KHBV 190455Z AUTO 13006KT 5SM BR SCT007 SCT013 26/24 A2975 RMK AO2 T02550238
KHBV 190435Z AUTO 14007KT 5SM BR CLR 26/24 A2974 RMK AO2 T02580238
KHBV 190415Z AUTO 16005KT 5SM BR SCT019 26/24 A2973 RMK AO2 T02630238
KHBV 190355Z AUTO 14006KT 5SM HZ SCT021 27/24 A2973 RMK AO2 T02680239
KHBV 190335Z AUTO 13005KT 5SM HZ OVC023 27/24 A2972 RMK AO2 T02730239
KHBV 190315Z AUTO 00000KT 7SM BKN023 28/24 A2971 RMK AO2 T02760239
KHBV 190255Z AUTO 00000KT 5SM HZ CLR 28/24 A2969 RMK AO2 T02760240
KHBV 190235Z AUTO 15004KT 7SM CLR 28/24 A2968 RMK AO2 T02810240
KHBV 190215Z AUTO 12005KT 7SM CLR 29/24 A2967 RMK AO2 T02870239
KHBV 190155Z AUTO 12007KT 7SM CLR 29/24 A2966 RMK AO2 T02910236
KHBV 190135Z AUTO 00000KT 7SM CLR 30/23 A2964 RMK AO2 T02980230
KHBV 190115Z AUTO 00000KT 7SM CLR 31/23 A2963 RMK AO2 T03060230
KHBV 190055Z AUTO 13005KT 7SM CLR 31/23 A2963 RMK AO2 T03140227
KHBV 190035Z AUTO 12004KT 7SM CLR 32/23 A2962 RMK AO2 T03200226
KHBV 190015Z AUTO 12007KT 7SM CLR 33/23 A2962 RMK AO2 T03270226
KHBV 182355Z AUTO 11009KT 7SM CLR 34/22 A2961 RMK AO2 T03350223 10351 20157
KHBV 182335Z AUTO 12010KT 10SM CLR 34/22 A2961 RMK AO2 T03440216
KHBV 182315Z AUTO 12008KT 10SM CLR 35/21 A2961 RMK AO2 T03490210
KHBV 182255Z AUTO 00000KT 10SM CLR 35/20 A2961 RMK AO2 T03510197
KHBV 182235Z AUTO 13003KT 10SM CLR 35/20 A2961 RMK AO2 T03480195
KHBV 182215Z AUTO 00000KT 10SM CLR 35/19 A2962 RMK AO2 T03480186
KHBV 182155Z AUTO 00000KT 10SM CLR 35/19 A2962 RMK AO2 T03450186
KHBV 182135Z AUTO 00000KT 10SM CLR 34/19 A2962 RMK AO2 T03430189
KHBV 182115Z AUTO 00000KT 10SM CLR 34/20 A2963 RMK AO2 T03410197
KHBV 182055Z AUTO 18004KT 10SM CLR 34/21 A2963 RMK AO2 T03400205
KHBV 182035Z AUTO 00000KT 10SM CLR 34/21 A2965 RMK AO2 T03350205
KHBV 182015Z AUTO 00000KT 10SM SCT045 SCT050 33/21 A2965 RMK AO2 T03310211
KHBV 181955Z AUTO 18004KT 10SM SCT043 SCT050 33/21 A2966 RMK AO2 T03280213
KHBV 181935Z AUTO 00000KT 10SM SCT037 SCT044 33/22 A2966 RMK AO2 T03260215
KHBV 181915Z AUTO 18006KT 10SM SCT036 SCT043 32/22 A2967 RMK AO2 T03220218
KHBV 181855Z AUTO 18006KT 10SM SCT035 32/22 A2968 RMK AO2 T03180223
KHBV 181835Z AUTO 18007G14KT 7SM SCT030 BKN036 31/23 A2968 RMK AO2 T03110225
KHBV 181815Z AUTO 20007G15KT 7SM SCT023 SCT029 SCT034 30/23 A2968 RMK AO2 T03010226
KHBV 181755Z AUTO 17011KT 7SM SCT022 BKN028 BKN040 29/23 A2969 RMK AO2 T02930227 10333 20157
KHBV 181735Z AUTO 18006KT 7SM BKN020 BKN028 BKN039 29/23 A2971 RMK AO2 T02850230
KHBV 181715Z AUTO 17005KT 7SM BKN018 BKN028 OVC038 28/23 A2971 RMK AO2 T02760229
KHBV 181655Z AUTO 18003KT 7SM BKN015 OVC021 27/23 A2971 RMK AO2 T02650229
KHBV 181635Z AUTO 17005KT 7SM BKN013 OVC019 26/23 A2972 RMK AO2 T02580230
KHBV 181615Z AUTO 17008G15KT 5SM BR BKN009 OVC018 25/23 A2972 RMK AO2 T02520232
KHBV 181555Z AUTO 16009KT 4SM BR SCT010 BKN016 OVC029 25/23 A2971 RMK AO2 T02500234
KHBV 181535Z AUTO 16008KT 4SM BR SCT010 SCT018 OVC029 25/23 A2972 RMK AO2 T02480232
KHBV 181515Z AUTO 16009KT 3SM BR BKN012 BKN019 OVC029 25/23 A2973 RMK AO2 T02480231
KHBV 181455Z AUTO 16008KT 3SM BR OVC012 25/23 A2973 RMK AO2 T02480229
KHBV 181435Z AUTO 16007KT 3SM BR BKN014 OVC019 25/23 A2973 RMK AO2 T02510227
KHBV 181415Z AUTO 16006KT 5SM BR SCT014 SCT019 OVC025 25/23 A2973 RMK AO2 T02530226
KHBV 181355Z AUTO 16006KT 7SM OVC025 25/23 A2973 RMK AO2 T02510225
KHBV 181335Z AUTO 15007KT 5SM BR SCT015 OVC023 25/23 A2973 RMK AO2 T02510226
KHBV 181315Z AUTO 15006KT 5SM BR BKN015 OVC021 25/23 A2973 RMK AO2 T02510225
KHBV 181255Z AUTO 16006KT 5SM BR BKN013 BKN020 OVC026 25/23 A2973 RMK AO2 T02510225
KHBV 181235Z AUTO 16006KT 7SM BKN015 BKN020 OVC026 25/22 A2973 RMK AO2 T02510224
KHBV 181215Z AUTO 17006KT 7SM SCT015 BKN020 OVC026 25/22 A2972 RMK AO2 T02510224
KHBV 181155Z AUTO 17007KT 7SM SCT016 OVC026 25/22 A2971 RMK AO2 T02510224 10333 20157
KHBV 181135Z AUTO 16008KT 7SM SCT013 BKN017 OVC028 25/22 A2971 RMK AO2 T02510224
KHBV 181115Z AUTO 17008KT 7SM BKN015 OVC029 25/23 A2970 RMK AO2 T02510225
KHBV 181055Z AUTO 17009KT 7SM BKN015 OVC021 25/23 A2971 RMK AO2 T02510225
KHBV 181035Z AUTO 16009G15KT 7SM BKN015 BKN022 OVC030 25/22 A2971 RMK AO2 T02510224
KHBV 181015Z AUTO 16010G14KT 7SM BKN015 BKN021 OVC030 25/22 A2970 RMK AO2 T02510223
KHBV 180955Z AUTO 16013KT 7SM BKN015 BKN023 OVC028 25/22 A2970 RMK AO2 T02510223
KHBV 180935Z AUTO 17011G18KT 7SM BKN015 OVC028 25/22 A2970 RMK AO2 T02520222
KHBV 180915Z AUTO 16013G20KT 7SM BKN015 BKN019 OVC028 25/22 A2970 RMK AO2 T02510222